sensor_id;sensor_type;location;lat;lon;timestamp;P1;durP1;ratioP1;P2;durP2;ratioP2
7231;SDS011;3657;49.630;11.018;2023-02-01T00:00:07;11.00;;;10.50;;
7231;SDS011;3657;49.630;11.018;2023-02-01T00:02:35;10.07;;;9.57;;
7231;SDS011;3657;49.630;11.018;2023-02-01T00:05:05;9.63;;;9.23;;
7231;SDS011;3657;49.630;11.018;2023-02-01T00:07:32;10.20;;;9.70;;
7231;SDS011;3657;49.630;11.018;2023-02-01T00:09:59;9.97;;;9.47;;
7231;SDS011;3657;49.630;11.018;2023-02-01T00:12:25;9.80;;;9.30;;
7231;SDS011;3657;49.630;11.018;2023-02-01T00:14:53;10.40;;;9.80;;
7231;SDS011;3657;49.630;11.018;2023-02-01T00:17:20;10.60;;;9.90;;
7231;SDS011;3657;49.630;11.018;2023-02-01T00:19:46;10.17;;;9.67;;
7231;SDS011;3657;49.630;11.018;2023-02-01T00:22:13;10.93;;;10.43;;
7231;SDS011;3657;49.630;11.018;2023-02-01T00:24:40;10.60;;;10.20;;
7231;SDS011;3657;49.630;11.018;2023-02-01T00:27:06;11.37;;;10.87;;
7231;SDS011;3657;49.630;11.018;2023-02-01T00:29:33;11.33;;;10.83;;
7231;SDS011;3657;49.630;11.018;2023-02-01T00:32:01;12.33;;;11.80;;
7231;SDS011;3657;49.630;11.018;2023-02-01T00:34:28;12.70;;;12.00;;
7231;SDS011;3657;49.630;11.018;2023-02-01T00:36:54;11.70;;;11.00;;
7231;SDS011;3657;49.630;11.018;2023-02-01T00:39:21;12.03;;;11.43;;
7231;SDS011;3657;49.630;11.018;2023-02-01T00:41:48;12.57;;;11.90;;
7231;SDS011;3657;49.630;11.018;2023-02-01T00:44:14;11.23;;;10.63;;
7231;SDS011;3657;49.630;11.018;2023-02-01T00:46:41;12.33;;;11.67;;
7231;SDS011;3657;49.630;11.018;2023-02-01T00:49:09;12.37;;;11.80;;
7231;SDS011;3657;49.630;11.018;2023-02-01T00:51:36;11.73;;;11.17;;
7231;SDS011;3657;49.630;11.018;2023-02-01T00:54:03;12.57;;;11.87;;
7231;SDS011;3657;49.630;11.018;2023-02-01T00:56:29;13.30;;;12.43;;
7231;SDS011;3657;49.630;11.018;2023-02-01T00:58:56;11.93;;;11.40;;
7231;SDS011;3657;49.630;11.018;2023-02-01T01:01:23;13.07;;;12.03;;
7231;SDS011;3657;49.630;11.018;2023-02-01T01:03:51;12.37;;;11.77;;
7231;SDS011;3657;49.630;11.018;2023-02-01T01:06:22;13.53;;;12.73;;
7231;SDS011;3657;49.630;11.018;2023-02-01T01:08:51;12.73;;;11.87;;
7231;SDS011;3657;49.630;11.018;2023-02-01T01:11:19;12.90;;;12.30;;
7231;SDS011;3657;49.630;11.018;2023-02-01T01:13:48;11.40;;;10.90;;
7231;SDS011;3657;49.630;11.018;2023-02-01T01:16:16;11.60;;;10.90;;
7231;SDS011;3657;49.630;11.018;2023-02-01T01:18:43;12.00;;;11.30;;
7231;SDS011;3657;49.630;11.018;2023-02-01T01:21:11;11.87;;;11.20;;
7231;SDS011;3657;49.630;11.018;2023-02-01T01:23:41;11.00;;;10.43;;
7231;SDS011;3657;49.630;11.018;2023-02-01T01:26:09;11.27;;;10.67;;
7231;SDS011;3657;49.630;11.018;2023-02-01T01:28:36;10.73;;;10.30;;
7231;SDS011;3657;49.630;11.018;2023-02-01T01:31:03;10.37;;;9.80;;
7231;SDS011;3657;49.630;11.018;2023-02-01T01:33:29;9.00;;;8.70;;
7231;SDS011;3657;49.630;11.018;2023-02-01T01:35:56;10.27;;;9.73;;
7231;SDS011;3657;49.630;11.018;2023-02-01T01:38:23;9.00;;;8.70;;
7231;SDS011;3657;49.630;11.018;2023-02-01T01:40:51;10.33;;;9.93;;
7231;SDS011;3657;49.630;11.018;2023-02-01T01:43:18;9.97;;;9.53;;
7231;SDS011;3657;49.630;11.018;2023-02-01T01:45:47;10.23;;;9.73;;
7231;SDS011;3657;49.630;11.018;2023-02-01T01:48:16;9.40;;;9.00;;
7231;SDS011;3657;49.630;11.018;2023-02-01T01:50:47;11.63;;;11.03;;
7231;SDS011;3657;49.630;11.018;2023-02-01T01:53:16;10.30;;;9.80;;
7231;SDS011;3657;49.630;11.018;2023-02-01T01:55:46;12.03;;;11.33;;
7231;SDS011;3657;49.630;11.018;2023-02-01T01:58:17;9.93;;;9.53;;
7231;SDS011;3657;49.630;11.018;2023-02-01T02:00:46;10.73;;;10.23;;
7231;SDS011;3657;49.630;11.018;2023-02-01T02:03:14;10.47;;;10.03;;
7231;SDS011;3657;49.630;11.018;2023-02-01T02:05:43;12.60;;;11.80;;
7231;SDS011;3657;49.630;11.018;2023-02-01T02:08:11;11.17;;;10.67;;
7231;SDS011;3657;49.630;11.018;2023-02-01T02:10:38;10.53;;;10.13;;
7231;SDS011;3657;49.630;11.018;2023-02-01T02:13:24;11.20;;;10.60;;
7231;SDS011;3657;49.630;11.018;2023-02-01T02:15:55;11.93;;;11.33;;
7231;SDS011;3657;49.630;11.018;2023-02-01T02:18:34;12.10;;;11.57;;
7231;SDS011;3657;49.630;11.018;2023-02-01T02:21:18;10.33;;;9.93;;
7231;SDS011;3657;49.630;11.018;2023-02-01T02:24:17;12.20;;;11.50;;
7231;SDS011;3657;49.630;11.018;2023-02-01T02:27:11;10.43;;;10.03;;
7231;SDS011;3657;49.630;11.018;2023-02-01T02:29:54;11.13;;;10.43;;
7231;SDS011;3657;49.630;11.018;2023-02-01T02:36:03;10.70;;;10.20;;
7231;SDS011;3657;49.630;11.018;2023-02-01T02:38:36;11.00;;;10.50;;
7231;SDS011;3657;49.630;11.018;2023-02-01T02:41:13;10.13;;;9.73;;
7231;SDS011;3657;49.630;11.018;2023-02-01T02:43:58;10.87;;;10.40;;
7231;SDS011;3657;49.630;11.018;2023-02-01T02:46:47;10.73;;;10.30;;
7231;SDS011;3657;49.630;11.018;2023-02-01T02:49:36;12.60;;;11.90;;
7231;SDS011;3657;49.630;11.018;2023-02-01T02:52:08;11.47;;;10.73;;
7231;SDS011;3657;49.630;11.018;2023-02-01T02:54:55;10.77;;;10.37;;
7231;SDS011;3657;49.630;11.018;2023-02-01T02:57:30;10.60;;;10.07;;
7231;SDS011;3657;49.630;11.018;2023-02-01T03:00:18;11.47;;;10.73;;
7231;SDS011;3657;49.630;11.018;2023-02-01T03:03:04;10.57;;;9.97;;
7231;SDS011;3657;49.630;11.018;2023-02-01T03:05:51;11.13;;;10.63;;
7231;SDS011;3657;49.630;11.018;2023-02-01T03:08:19;10.90;;;10.27;;
7231;SDS011;3657;49.630;11.018;2023-02-01T03:10:56;10.27;;;9.87;;
7231;SDS011;3657;49.630;11.018;2023-02-01T03:13:27;11.73;;;10.93;;
7231;SDS011;3657;49.630;11.018;2023-02-01T03:15:59;10.03;;;9.63;;
7231;SDS011;3657;49.630;11.018;2023-02-01T03:18:32;10.77;;;10.27;;
7231;SDS011;3657;49.630;11.018;2023-02-01T03:21:05;11.60;;;11.10;;
7231;SDS011;3657;49.630;11.018;2023-02-01T03:23:36;10.63;;;10.23;;
7231;SDS011;3657;49.630;11.018;2023-02-01T03:26:04;11.07;;;10.57;;
7231;SDS011;3657;49.630;11.018;2023-02-01T03:28:34;11.30;;;10.73;;
7231;SDS011;3657;49.630;11.018;2023-02-01T03:31:04;9.83;;;9.43;;
7231;SDS011;3657;49.630;11.018;2023-02-01T03:33:32;9.93;;;9.53;;
7231;SDS011;3657;49.630;11.018;2023-02-01T03:36:01;11.00;;;10.40;;
7231;SDS011;3657;49.630;11.018;2023-02-01T03:38:37;10.63;;;10.23;;
7231;SDS011;3657;49.630;11.018;2023-02-01T03:41:08;9.77;;;9.37;;
7231;SDS011;3657;49.630;11.018;2023-02-01T03:43:39;9.37;;;8.97;;
7231;SDS011;3657;49.630;11.018;2023-02-01T03:46:15;12.50;;;11.73;;
7231;SDS011;3657;49.630;11.018;2023-02-01T03:48:46;10.03;;;9.63;;
7231;SDS011;3657;49.630;11.018;2023-02-01T03:51:17;9.47;;;8.97;;
7231;SDS011;3657;49.630;11.018;2023-02-01T03:53:46;10.27;;;9.73;;
7231;SDS011;3657;49.630;11.018;2023-02-01T03:56:14;9.53;;;9.13;;
7231;SDS011;3657;49.630;11.018;2023-02-01T03:58:44;10.93;;;10.53;;
7231;SDS011;3657;49.630;11.018;2023-02-01T04:01:23;10.67;;;10.23;;
7231;SDS011;3657;49.630;11.018;2023-02-01T04:03:50;11.57;;;10.87;;
7231;SDS011;3657;49.630;11.018;2023-02-01T04:06:18;10.90;;;10.40;;
7231;SDS011;3657;49.630;11.018;2023-02-01T04:08:45;11.73;;;11.23;;
7231;SDS011;3657;49.630;11.018;2023-02-01T04:11:12;13.10;;;12.40;;
7231;SDS011;3657;49.630;11.018;2023-02-01T04:13:39;10.33;;;9.90;;
7231;SDS011;3657;49.630;11.018;2023-02-01T04:16:05;11.63;;;11.13;;
7231;SDS011;3657;49.630;11.018;2023-02-01T04:18:32;11.90;;;11.30;;
7231;SDS011;3657;49.630;11.018;2023-02-01T04:20:59;13.47;;;12.77;;
7231;SDS011;3657;49.630;11.018;2023-02-01T04:23:28;11.93;;;11.40;;
7231;SDS011;3657;49.630;11.018;2023-02-01T04:25:58;12.90;;;11.90;;
7231;SDS011;3657;49.630;11.018;2023-02-01T04:28:26;15.37;;;14.00;;
7231;SDS011;3657;49.630;11.018;2023-02-01T04:30:52;12.63;;;11.93;;
7231;SDS011;3657;49.630;11.018;2023-02-01T04:33:19;13.53;;;12.77;;
7231;SDS011;3657;49.630;11.018;2023-02-01T04:35:46;13.80;;;12.80;;
7231;SDS011;3657;49.630;11.018;2023-02-01T04:38:13;13.13;;;12.30;;
7231;SDS011;3657;49.630;11.018;2023-02-01T04:40:41;14.07;;;13.13;;
7231;SDS011;3657;49.630;11.018;2023-02-01T04:43:08;13.07;;;12.27;;
7231;SDS011;3657;49.630;11.018;2023-02-01T04:45:34;13.60;;;12.70;;
7231;SDS011;3657;49.630;11.018;2023-02-01T04:48:01;13.60;;;12.87;;
7231;SDS011;3657;49.630;11.018;2023-02-01T04:50:28;13.03;;;12.40;;
7231;SDS011;3657;49.630;11.018;2023-02-01T04:52:54;12.07;;;11.50;;
7231;SDS011;3657;49.630;11.018;2023-02-01T04:55:21;13.53;;;12.83;;
7231;SDS011;3657;49.630;11.018;2023-02-01T04:57:49;13.00;;;12.20;;
7231;SDS011;3657;49.630;11.018;2023-02-01T05:00:16;12.90;;;12.27;;
7231;SDS011;3657;49.630;11.018;2023-02-01T05:02:43;13.50;;;12.80;;
7231;SDS011;3657;49.630;11.018;2023-02-01T05:05:10;13.83;;;12.83;;
7231;SDS011;3657;49.630;11.018;2023-02-01T05:07:36;12.40;;;11.80;;
7231;SDS011;3657;49.630;11.018;2023-02-01T05:10:03;13.27;;;12.57;;
7231;SDS011;3657;49.630;11.018;2023-02-01T05:12:30;13.43;;;12.73;;
7231;SDS011;3657;49.630;11.018;2023-02-01T05:15:16;13.70;;;12.67;;
7231;SDS011;3657;49.630;11.018;2023-02-01T05:17:42;13.03;;;12.37;;
7231;SDS011;3657;49.630;11.018;2023-02-01T05:20:09;12.70;;;12.10;;
7231;SDS011;3657;49.630;11.018;2023-02-01T05:22:37;12.30;;;11.50;;
7231;SDS011;3657;49.630;11.018;2023-02-01T05:25:04;12.10;;;11.60;;
7231;SDS011;3657;49.630;11.018;2023-02-01T05:27:31;11.97;;;11.47;;
7231;SDS011;3657;49.630;11.018;2023-02-01T05:29:57;12.53;;;11.73;;
7231;SDS011;3657;49.630;11.018;2023-02-01T05:32:25;11.83;;;11.13;;
7231;SDS011;3657;49.630;11.018;2023-02-01T05:34:52;11.03;;;10.43;;
7231;SDS011;3657;49.630;11.018;2023-02-01T05:37:19;10.90;;;10.50;;
7231;SDS011;3657;49.630;11.018;2023-02-01T05:39:45;10.50;;;10.00;;
7231;SDS011;3657;49.630;11.018;2023-02-01T05:42:12;10.47;;;9.97;;
7231;SDS011;3657;49.630;11.018;2023-02-01T05:44:39;10.23;;;9.33;;
7231;SDS011;3657;49.630;11.018;2023-02-01T05:47:05;9.40;;;8.83;;
7231;SDS011;3657;49.630;11.018;2023-02-01T05:49:33;9.40;;;8.90;;
7231;SDS011;3657;49.630;11.018;2023-02-01T05:52:00;9.20;;;8.30;;
7231;SDS011;3657;49.630;11.018;2023-02-01T05:54:27;8.60;;;8.00;;
7231;SDS011;3657;49.630;11.018;2023-02-01T05:56:54;7.80;;;7.43;;
7231;SDS011;3657;49.630;11.018;2023-02-01T05:59:20;8.10;;;7.40;;
7231;SDS011;3657;49.630;11.018;2023-02-01T06:01:47;7.77;;;7.17;;
7231;SDS011;3657;49.630;11.018;2023-02-01T06:04:14;8.30;;;7.80;;
7231;SDS011;3657;49.630;11.018;2023-02-01T06:06:42;7.23;;;6.63;;
7231;SDS011;3657;49.630;11.018;2023-02-01T06:09:09;6.50;;;6.03;;
7231;SDS011;3657;49.630;11.018;2023-02-01T06:11:35;7.80;;;7.17;;
7231;SDS011;3657;49.630;11.018;2023-02-01T06:14:02;6.00;;;5.63;;
7231;SDS011;3657;49.630;11.018;2023-02-01T06:16:29;4.97;;;4.63;;
7231;SDS011;3657;49.630;11.018;2023-02-01T06:18:56;5.83;;;5.40;;
7231;SDS011;3657;49.630;11.018;2023-02-01T06:21:23;5.40;;;5.20;;
7231;SDS011;3657;49.630;11.018;2023-02-01T06:23:51;5.50;;;5.13;;
7231;SDS011;3657;49.630;11.018;2023-02-01T06:26:18;5.40;;;5.20;;
7231;SDS011;3657;49.630;11.018;2023-02-01T06:28:45;4.90;;;4.60;;
7231;SDS011;3657;49.630;11.018;2023-02-01T06:31:12;4.90;;;4.60;;
7231;SDS011;3657;49.630;11.018;2023-02-01T06:33:38;4.27;;;4.07;;
7231;SDS011;3657;49.630;11.018;2023-02-01T06:36:06;3.93;;;3.70;;
7231;SDS011;3657;49.630;11.018;2023-02-01T06:38:34;4.40;;;4.10;;
7231;SDS011;3657;49.630;11.018;2023-02-01T06:41:02;3.60;;;3.50;;
7231;SDS011;3657;49.630;11.018;2023-02-01T06:43:30;3.97;;;3.77;;
7231;SDS011;3657;49.630;11.018;2023-02-01T06:45:59;4.53;;;4.23;;
7231;SDS011;3657;49.630;11.018;2023-02-01T06:48:26;4.03;;;3.80;;
7231;SDS011;3657;49.630;11.018;2023-02-01T06:50:53;4.23;;;4.03;;
7231;SDS011;3657;49.630;11.018;2023-02-01T06:53:19;3.63;;;3.53;;
7231;SDS011;3657;49.630;11.018;2023-02-01T06:55:52;3.40;;;3.30;;
7231;SDS011;3657;49.630;11.018;2023-02-01T06:58:21;3.60;;;3.40;;
7231;SDS011;3657;49.630;11.018;2023-02-01T07:00:48;3.27;;;3.17;;
7231;SDS011;3657;49.630;11.018;2023-02-01T07:03:15;3.20;;;3.10;;
7231;SDS011;3657;49.630;11.018;2023-02-01T07:05:42;3.27;;;3.17;;
7231;SDS011;3657;49.630;11.018;2023-02-01T07:08:08;3.43;;;3.33;;
7231;SDS011;3657;49.630;11.018;2023-02-01T07:10:35;3.43;;;3.33;;
7231;SDS011;3657;49.630;11.018;2023-02-01T07:13:02;3.80;;;3.70;;
7231;SDS011;3657;49.630;11.018;2023-02-01T07:15:30;3.70;;;3.60;;
7231;SDS011;3657;49.630;11.018;2023-02-01T07:17:58;4.03;;;3.93;;
7231;SDS011;3657;49.630;11.018;2023-02-01T07:20:24;4.10;;;3.90;;
7231;SDS011;3657;49.630;11.018;2023-02-01T07:22:54;4.73;;;4.53;;
7231;SDS011;3657;49.630;11.018;2023-02-01T07:25:21;4.27;;;4.10;;
7231;SDS011;3657;49.630;11.018;2023-02-01T07:27:48;4.27;;;4.13;;
7231;SDS011;3657;49.630;11.018;2023-02-01T07:30:15;5.30;;;4.77;;
7231;SDS011;3657;49.630;11.018;2023-02-01T07:32:43;5.57;;;5.37;;
7231;SDS011;3657;49.630;11.018;2023-02-01T07:35:10;5.70;;;5.40;;
7231;SDS011;3657;49.630;11.018;2023-02-01T07:37:36;6.03;;;5.73;;
7231;SDS011;3657;49.630;11.018;2023-02-01T07:40:03;5.67;;;5.47;;
7231;SDS011;3657;49.630;11.018;2023-02-01T07:42:31;7.03;;;6.83;;
7231;SDS011;3657;49.630;11.018;2023-02-01T07:44:57;6.37;;;5.97;;
7231;SDS011;3657;49.630;11.018;2023-02-01T07:47:24;7.43;;;7.10;;
7231;SDS011;3657;49.630;11.018;2023-02-01T07:49:52;7.17;;;6.87;;
7231;SDS011;3657;49.630;11.018;2023-02-01T07:52:19;7.03;;;6.73;;
7231;SDS011;3657;49.630;11.018;2023-02-01T07:54:45;6.93;;;6.63;;
7231;SDS011;3657;49.630;11.018;2023-02-01T07:57:12;6.90;;;6.67;;
7231;SDS011;3657;49.630;11.018;2023-02-01T07:59:39;7.43;;;7.10;;
7231;SDS011;3657;49.630;11.018;2023-02-01T08:02:26;7.73;;;7.23;;
7231;SDS011;3657;49.630;11.018;2023-02-01T08:04:53;6.93;;;6.67;;
7231;SDS011;3657;49.630;11.018;2023-02-01T08:07:19;7.60;;;7.10;;
7231;SDS011;3657;49.630;11.018;2023-02-01T08:09:47;7.67;;;7.17;;
7231;SDS011;3657;49.630;11.018;2023-02-01T08:12:13;7.30;;;7.00;;
7231;SDS011;3657;49.630;11.018;2023-02-01T08:14:40;8.10;;;7.73;;
7231;SDS011;3657;49.630;11.018;2023-02-01T08:17:07;7.57;;;7.27;;
7231;SDS011;3657;49.630;11.018;2023-02-01T08:19:33;6.23;;;5.83;;
7231;SDS011;3657;49.630;11.018;2023-02-01T08:22:01;7.13;;;6.83;;
7231;SDS011;3657;49.630;11.018;2023-02-01T08:24:31;7.00;;;6.60;;
7231;SDS011;3657;49.630;11.018;2023-02-01T08:27:00;6.80;;;6.50;;
7231;SDS011;3657;49.630;11.018;2023-02-01T08:29:26;6.53;;;6.07;;
7231;SDS011;3657;49.630;11.018;2023-02-01T08:31:53;6.50;;;6.10;;
7231;SDS011;3657;49.630;11.018;2023-02-01T08:34:20;6.50;;;6.20;;
7231;SDS011;3657;49.630;11.018;2023-02-01T08:36:46;6.47;;;5.90;;
7231;SDS011;3657;49.630;11.018;2023-02-01T08:39:15;6.20;;;5.90;;
7231;SDS011;3657;49.630;11.018;2023-02-01T08:41:41;6.23;;;5.93;;
7231;SDS011;3657;49.630;11.018;2023-02-01T08:44:28;6.13;;;5.83;;
7231;SDS011;3657;49.630;11.018;2023-02-01T08:46:55;6.43;;;5.93;;
7231;SDS011;3657;49.630;11.018;2023-02-01T08:49:21;7.00;;;6.70;;
7231;SDS011;3657;49.630;11.018;2023-02-01T08:51:48;6.43;;;5.93;;
7231;SDS011;3657;49.630;11.018;2023-02-01T08:54:16;7.03;;;6.30;;
7231;SDS011;3657;49.630;11.018;2023-02-01T08:56:42;6.37;;;6.10;;
7231;SDS011;3657;49.630;11.018;2023-02-01T08:59:09;6.13;;;5.80;;
7231;SDS011;3657;49.630;11.018;2023-02-01T09:01:36;6.30;;;5.90;;
7231;SDS011;3657;49.630;11.018;2023-02-01T09:04:03;5.83;;;5.53;;
7231;SDS011;3657;49.630;11.018;2023-02-01T09:06:29;6.07;;;5.77;;
7231;SDS011;3657;49.630;11.018;2023-02-01T09:08:56;5.93;;;5.63;;
7231;SDS011;3657;49.630;11.018;2023-02-01T09:11:24;5.30;;;5.10;;
7231;SDS011;3657;49.630;11.018;2023-02-01T09:13:51;6.70;;;6.10;;
7231;SDS011;3657;49.630;11.018;2023-02-01T09:16:18;5.77;;;5.47;;
7231;SDS011;3657;49.630;11.018;2023-02-01T09:18:45;7.00;;;6.53;;
7231;SDS011;3657;49.630;11.018;2023-02-01T09:21:11;7.13;;;6.63;;
7231;SDS011;3657;49.630;11.018;2023-02-01T09:23:38;6.63;;;6.23;;
7231;SDS011;3657;49.630;11.018;2023-02-01T09:26:05;6.43;;;6.03;;
7231;SDS011;3657;49.630;11.018;2023-02-01T09:28:33;7.23;;;6.70;;
7231;SDS011;3657;49.630;11.018;2023-02-01T09:31:00;6.80;;;6.50;;
7231;SDS011;3657;49.630;11.018;2023-02-01T09:33:27;6.60;;;6.30;;
7231;SDS011;3657;49.630;11.018;2023-02-01T09:35:57;7.43;;;6.93;;
7231;SDS011;3657;49.630;11.018;2023-02-01T09:38:24;6.37;;;6.07;;
7231;SDS011;3657;49.630;11.018;2023-02-01T09:40:52;6.33;;;5.93;;
7231;SDS011;3657;49.630;11.018;2023-02-01T09:43:21;7.90;;;7.23;;
7231;SDS011;3657;49.630;11.018;2023-02-01T09:46:02;6.90;;;6.40;;
7231;SDS011;3657;49.630;11.018;2023-02-01T09:48:43;7.23;;;6.73;;
7231;SDS011;3657;49.630;11.018;2023-02-01T09:51:13;6.87;;;6.40;;
7231;SDS011;3657;49.630;11.018;2023-02-01T09:53:47;7.23;;;6.57;;
7231;SDS011;3657;49.630;11.018;2023-02-01T09:56:21;7.80;;;5.77;;
7231;SDS011;3657;49.630;11.018;2023-02-01T09:58:55;6.53;;;6.03;;
7231;SDS011;3657;49.630;11.018;2023-02-01T10:01:29;6.20;;;5.73;;
7231;SDS011;3657;49.630;11.018;2023-02-01T10:03:59;6.50;;;5.33;;
7231;SDS011;3657;49.630;11.018;2023-02-01T10:06:31;6.80;;;6.30;;
7231;SDS011;3657;49.630;11.018;2023-02-01T10:09:16;5.67;;;5.37;;
7231;SDS011;3657;49.630;11.018;2023-02-01T10:12:00;6.93;;;6.37;;
7231;SDS011;3657;49.630;11.018;2023-02-01T10:14:51;6.77;;;6.20;;
7231;SDS011;3657;49.630;11.018;2023-02-01T10:17:28;6.07;;;5.60;;
7231;SDS011;3657;49.630;11.018;2023-02-01T10:20:10;6.60;;;6.00;;
7231;SDS011;3657;49.630;11.018;2023-02-01T10:22:47;6.53;;;6.13;;
7231;SDS011;3657;49.630;11.018;2023-02-01T10:25:22;6.63;;;6.13;;
7231;SDS011;3657;49.630;11.018;2023-02-01T10:27:52;6.17;;;5.87;;
7231;SDS011;3657;49.630;11.018;2023-02-01T10:30:20;6.83;;;6.37;;
7231;SDS011;3657;49.630;11.018;2023-02-01T10:32:52;6.47;;;6.07;;
7231;SDS011;3657;49.630;11.018;2023-02-01T10:35:23;7.17;;;6.57;;
7231;SDS011;3657;49.630;11.018;2023-02-01T10:37:58;6.90;;;6.47;;
7231;SDS011;3657;49.630;11.018;2023-02-01T10:40:27;6.63;;;6.27;;
7231;SDS011;3657;49.630;11.018;2023-02-01T10:42:56;7.17;;;6.50;;
7231;SDS011;3657;49.630;11.018;2023-02-01T10:45:26;6.73;;;6.10;;
7231;SDS011;3657;49.630;11.018;2023-02-01T10:47:56;7.70;;;7.30;;
7231;SDS011;3657;49.630;11.018;2023-02-01T10:50:29;7.60;;;7.00;;
7231;SDS011;3657;49.630;11.018;2023-02-01T10:53:01;7.37;;;6.77;;
7231;SDS011;3657;49.630;11.018;2023-02-01T10:55:34;7.33;;;6.90;;
7231;SDS011;3657;49.630;11.018;2023-02-01T10:58:04;7.07;;;6.67;;
7231;SDS011;3657;49.630;11.018;2023-02-01T11:00:37;7.93;;;7.33;;
7231;SDS011;3657;49.630;11.018;2023-02-01T11:03:22;7.20;;;6.70;;
7231;SDS011;3657;49.630;11.018;2023-02-01T11:06:01;7.50;;;6.90;;
7231;SDS011;3657;49.630;11.018;2023-02-01T11:08:35;6.80;;;6.33;;
7231;SDS011;3657;49.630;11.018;2023-02-01T11:11:09;7.20;;;6.80;;
7231;SDS011;3657;49.630;11.018;2023-02-01T11:13:37;9.27;;;8.13;;
7231;SDS011;3657;49.630;11.018;2023-02-01T11:16:05;7.53;;;6.80;;
7231;SDS011;3657;49.630;11.018;2023-02-01T11:18:37;7.57;;;6.93;;
7231;SDS011;3657;49.630;11.018;2023-02-01T11:21:04;7.80;;;7.20;;
7231;SDS011;3657;49.630;11.018;2023-02-01T11:23:32;7.87;;;7.07;;
7231;SDS011;3657;49.630;11.018;2023-02-01T11:26:07;8.07;;;7.40;;
7231;SDS011;3657;49.630;11.018;2023-02-01T11:28:38;7.07;;;6.67;;
7231;SDS011;3657;49.630;11.018;2023-02-01T11:31:07;7.43;;;6.97;;
7231;SDS011;3657;49.630;11.018;2023-02-01T11:33:38;7.93;;;7.50;;
7231;SDS011;3657;49.630;11.018;2023-02-01T11:36:15;7.90;;;7.30;;
7231;SDS011;3657;49.630;11.018;2023-02-01T11:38:45;8.47;;;7.93;;
7231;SDS011;3657;49.630;11.018;2023-02-01T11:41:20;7.93;;;7.23;;
7231;SDS011;3657;49.630;11.018;2023-02-01T11:43:51;8.33;;;7.73;;
7231;SDS011;3657;49.630;11.018;2023-02-01T11:46:19;7.67;;;6.90;;
7231;SDS011;3657;49.630;11.018;2023-02-01T11:48:53;8.17;;;7.57;;
7231;SDS011;3657;49.630;11.018;2023-02-01T11:51:24;8.03;;;7.37;;
7231;SDS011;3657;49.630;11.018;2023-02-01T11:54:20;6.60;;;6.27;;
7231;SDS011;3657;49.630;11.018;2023-02-01T11:57:04;6.57;;;6.03;;
7231;SDS011;3657;49.630;11.018;2023-02-01T11:59:52;7.03;;;6.43;;
7231;SDS011;3657;49.630;11.018;2023-02-01T12:02:36;6.90;;;6.20;;
7231;SDS011;3657;49.630;11.018;2023-02-01T12:05:25;6.47;;;6.07;;
7231;SDS011;3657;49.630;11.018;2023-02-01T12:08:16;7.27;;;6.23;;
7231;SDS011;3657;49.630;11.018;2023-02-01T12:10:58;6.70;;;6.10;;
7231;SDS011;3657;49.630;11.018;2023-02-01T12:13:40;6.73;;;6.33;;
7231;SDS011;3657;49.630;11.018;2023-02-01T12:16:18;5.77;;;5.30;;
7231;SDS011;3657;49.630;11.018;2023-02-01T12:27:41;6.40;;;5.80;;
7231;SDS011;3657;49.630;11.018;2023-02-01T12:30:23;6.47;;;5.93;;
7231;SDS011;3657;49.630;11.018;2023-02-01T12:33:22;5.67;;;5.37;;
7231;SDS011;3657;49.630;11.018;2023-02-01T12:35:59;7.20;;;5.10;;
7231;SDS011;3657;49.630;11.018;2023-02-01T12:38:44;7.70;;;6.33;;
7231;SDS011;3657;49.630;11.018;2023-02-01T12:41:24;5.60;;;5.20;;
7231;SDS011;3657;49.630;11.018;2023-02-01T12:44:08;6.53;;;5.77;;
7231;SDS011;3657;49.630;11.018;2023-02-01T12:46:43;5.37;;;4.97;;
7231;SDS011;3657;49.630;11.018;2023-02-01T12:49:14;6.47;;;5.73;;
7231;SDS011;3657;49.630;11.018;2023-02-01T12:51:46;5.67;;;5.03;;
7231;SDS011;3657;49.630;11.018;2023-02-01T12:54:18;6.00;;;5.43;;
7231;SDS011;3657;49.630;11.018;2023-02-01T12:56:48;7.40;;;5.57;;
7231;SDS011;3657;49.630;11.018;2023-02-01T12:59:22;8.27;;;6.43;;
7231;SDS011;3657;49.630;11.018;2023-02-01T13:01:54;5.53;;;5.03;;
7231;SDS011;3657;49.630;11.018;2023-02-01T13:04:26;6.37;;;5.23;;
7231;SDS011;3657;49.630;11.018;2023-02-01T13:06:57;6.40;;;5.77;;
7231;SDS011;3657;49.630;11.018;2023-02-01T13:09:33;6.73;;;6.17;;
7231;SDS011;3657;49.630;11.018;2023-02-01T13:12:06;5.90;;;5.60;;
7231;SDS011;3657;49.630;11.018;2023-02-01T13:14:39;7.40;;;6.70;;
7231;SDS011;3657;49.630;11.018;2023-02-01T13:17:12;6.00;;;5.60;;
7231;SDS011;3657;49.630;11.018;2023-02-01T13:19:42;9.63;;;7.10;;
7231;SDS011;3657;49.630;11.018;2023-02-01T13:22:15;7.17;;;6.57;;
7231;SDS011;3657;49.630;11.018;2023-02-01T13:24:57;6.33;;;5.63;;
7231;SDS011;3657;49.630;11.018;2023-02-01T13:27:26;5.90;;;5.43;;
7231;SDS011;3657;49.630;11.018;2023-02-01T13:29:56;6.90;;;6.40;;
7231;SDS011;3657;49.630;11.018;2023-02-01T13:32:29;5.73;;;5.33;;
7231;SDS011;3657;49.630;11.018;2023-02-01T13:35:25;6.77;;;6.13;;
7231;SDS011;3657;49.630;11.018;2023-02-01T13:38:11;6.60;;;6.10;;
7231;SDS011;3657;49.630;11.018;2023-02-01T13:40:56;7.40;;;6.80;;
7231;SDS011;3657;49.630;11.018;2023-02-01T13:43:38;8.60;;;6.20;;
7231;SDS011;3657;49.630;11.018;2023-02-01T13:46:07;7.17;;;6.53;;
7231;SDS011;3657;49.630;11.018;2023-02-01T13:48:39;7.27;;;6.40;;
7231;SDS011;3657;49.630;11.018;2023-02-01T13:51:12;7.27;;;6.50;;
7231;SDS011;3657;49.630;11.018;2023-02-01T13:53:43;7.63;;;6.97;;
7231;SDS011;3657;49.630;11.018;2023-02-01T13:56:13;7.20;;;6.67;;
7231;SDS011;3657;49.630;11.018;2023-02-01T13:58:43;8.23;;;7.03;;
7231;SDS011;3657;49.630;11.018;2023-02-01T14:01:33;6.40;;;5.80;;
7231;SDS011;3657;49.630;11.018;2023-02-01T14:04:02;8.70;;;6.30;;
7231;SDS011;3657;49.630;11.018;2023-02-01T14:06:35;8.67;;;6.97;;
7231;SDS011;3657;49.630;11.018;2023-02-01T14:09:11;8.43;;;7.60;;
7231;SDS011;3657;49.630;11.018;2023-02-01T14:11:55;7.53;;;6.93;;
7231;SDS011;3657;49.630;11.018;2023-02-01T14:23:02;10.63;;;6.07;;
7231;SDS011;3657;49.630;11.018;2023-02-01T14:25:32;6.83;;;6.33;;
7231;SDS011;3657;49.630;11.018;2023-02-01T14:28:00;8.23;;;7.43;;
7231;SDS011;3657;49.630;11.018;2023-02-01T14:30:29;7.20;;;6.53;;
7231;SDS011;3657;49.630;11.018;2023-02-01T14:32:56;7.43;;;6.40;;
7231;SDS011;3657;49.630;11.018;2023-02-01T14:35:24;7.73;;;7.20;;
7231;SDS011;3657;49.630;11.018;2023-02-01T14:37:53;6.50;;;6.10;;
7231;SDS011;3657;49.630;11.018;2023-02-01T14:40:27;6.87;;;6.23;;
7231;SDS011;3657;49.630;11.018;2023-02-01T14:42:54;5.77;;;5.47;;
7231;SDS011;3657;49.630;11.018;2023-02-01T14:51:10;5.67;;;5.33;;
7231;SDS011;3657;49.630;11.018;2023-02-01T14:53:40;6.87;;;6.17;;
7231;SDS011;3657;49.630;11.018;2023-02-01T14:56:08;7.33;;;5.90;;
7231;SDS011;3657;49.630;11.018;2023-02-01T14:58:40;7.17;;;6.33;;
7231;SDS011;3657;49.630;11.018;2023-02-01T15:01:18;6.33;;;5.77;;
7231;SDS011;3657;49.630;11.018;2023-02-01T15:03:52;5.93;;;5.57;;
7231;SDS011;3657;49.630;11.018;2023-02-01T15:06:24;6.10;;;5.60;;
7231;SDS011;3657;49.630;11.018;2023-02-01T15:08:54;6.20;;;5.80;;
7231;SDS011;3657;49.630;11.018;2023-02-01T15:11:23;9.17;;;6.90;;
7231;SDS011;3657;49.630;11.018;2023-02-01T15:13:51;6.37;;;5.97;;
7231;SDS011;3657;49.630;11.018;2023-02-01T15:16:22;10.37;;;7.03;;
7231;SDS011;3657;49.630;11.018;2023-02-01T15:18:50;6.63;;;5.93;;
7231;SDS011;3657;49.630;11.018;2023-02-01T15:21:32;7.37;;;6.17;;
7231;SDS011;3657;49.630;11.018;2023-02-01T15:24:10;6.00;;;5.40;;
7231;SDS011;3657;49.630;11.018;2023-02-01T15:26:37;7.57;;;6.73;;
7231;SDS011;3657;49.630;11.018;2023-02-01T15:29:04;6.47;;;5.97;;
7231;SDS011;3657;49.630;11.018;2023-02-01T15:31:36;7.33;;;6.10;;
7231;SDS011;3657;49.630;11.018;2023-02-01T15:34:05;6.77;;;6.27;;
7231;SDS011;3657;49.630;11.018;2023-02-01T15:36:32;6.43;;;5.83;;
7231;SDS011;3657;49.630;11.018;2023-02-01T15:39:13;6.57;;;6.10;;
7231;SDS011;3657;49.630;11.018;2023-02-01T15:41:46;7.07;;;6.37;;